Nearby METAR Reports

KLNK - Lincoln, Nebraska, USA
Distance from station: WNW 8mi, 13km
Updated: Thu, 20-Jan-2022 12:54am CST
Clear
Clear
 Wind from NNW
Wind: NNW 6 mph , 9 km/h
Temperature: 3°F , -16°C
Wind Chill: -8°F , -22°C
Dew Point: -6°F , -21°C
Humidity: 66%
Barometer: 30.69 inHg , 1039.3 hPa
Clouds: Clear
Visibility: 10 miles , 16 km
2022/01/20 06:54 KLNK 200654Z 34005KT 10SM CLR M16/M21 A3069 RMK AO2 SLP419 T11561211
KAHQ - Wahoo, Nebraska, USA
Distance from station: N 31mi, 49km
Updated: Thu, 20-Jan-2022 12:55am CST
Overcast
Overcast
 Wind from NNW
Wind: NNW 5 mph , 7 km/h
Temperature: 1°F , -17°C
Wind Chill: -9°F , -23°C
Dew Point: -6°F , -21°C
Humidity: 71%
Barometer: 30.68 inHg , 1038.9 hPa
Clouds: Overcast
Visibility: 10 miles , 16 km
Cloud details: Overcast 12000 ft
2022/01/20 06:55 KAHQ 200655Z AUTO 33004KT 10SM OVC120 M17/M21 A3068 RMK AO2 T11721210
 
KBIE - Beatrice Municip, Nebraska, USA
Distance from station: S 36mi, 57km
Updated: Thu, 20-Jan-2022 12:55am CST
Clear
Clear
 Wind from NW
Wind: NW 5 mph , 7 km/h
Temperature: -0°F , -18°C
Wind Chill: -11°F , -24°C
Dew Point: -6°F , -21°C
Humidity: 78%
Barometer: 30.67 inHg , 1038.6 hPa
Clouds: Clear
Visibility: 10 miles , 16 km
2022/01/20 06:55 KBIE 200655Z AUTO 32004KT 10SM CLR M18/M21 A3067 RMK AO2 T11811210
KMLE - Omaha/Millard, Nebraska, USA
Distance from station: NE 39mi, 63km
Updated: Thu, 20-Jan-2022 12:55am CST
Clear
Clear
 Wind from N
Wind: N 7 mph , 11 km/h
Temperature: 7°F , -14°C
Wind Chill: -5°F , -21°C
Dew Point: -6°F , -21°C
Humidity: 56%
Barometer: 30.68 inHg , 1038.9 hPa
Clouds: Clear
Visibility: 10 miles , 16 km
2022/01/20 06:55 KMLE 200655Z AUTO 35006KT 10SM CLR M14/M21 A3068 RMK AO2 T11371206
 
KPMV - Plattsmouth Muni, Nebraska, USA
Distance from station: ENE 39mi, 63km
Updated: Thu, 20-Jan-2022 12:55am CST
Clear
Clear
 Wind from NNW
Wind: NNW 6 mph , 9 km/h
Temperature: 5°F , -15°C
Wind Chill: -6°F , -21°C
Dew Point: -4°F , -20°C
Humidity: 66%
Barometer: 30.66 inHg , 1038.3 hPa
Clouds: Clear
Visibility: 10 miles , 16 km
2022/01/20 06:55 KPMV 200655Z AUTO 33005KT 10SM CLR M15/M20 A3066 RMK AO2 T11501196
KAFK - Nebraska City, Nebraska, USA
Distance from station: ESE 43mi, 69km
Updated: Thu, 20-Jan-2022 12:55am CST
Clear
Clear
 Wind from NNW
Wind: NNW 6 mph , 9 km/h
Temperature: 5°F , -15°C
Wind Chill: -6°F , -21°C
Dew Point: -4°F , -20°C
Humidity: 66%
Barometer: 30.66 inHg , 1038.3 hPa
Clouds: Clear
Visibility: 10 miles , 16 km
2022/01/20 06:55 KAFK 200655Z AUTO 34005KT 10SM CLR M15/M20 A3066 RMK AO2 T11551196
 
KOFF - Offutt Afb/Belle, Nebraska, USA
Distance from station: ENE 44mi, 70km
Updated: Wed, 19-Jan-2022 11:56pm CST
Clear
Clear
 Wind from NNW
Wind: NNW 8 mph , 13 km/h
Temperature: 7°F , -14°C
Wind Chill: -6°F , -21°C
Dew Point: -8°F , -22°C
Humidity: 51%
Barometer: 30.70 inHg , 1039.6 hPa
Clouds: Clear
Visibility: 10 miles , 16 km
2022/01/20 05:56 KOFF 200556Z 34007KT 10SM CLR M14/M22 A3070 RMK AO2A SLP425 T11401216 11109 21140 410171140 52012 PWINO PNO FZRANO TSNO VISNO RWY12 CHINO RWY12 $
KFET - Fremont Muni Arp, Nebraska, USA
Distance from station: N 46mi, 74km
Updated: Thu, 20-Jan-2022 12:55am CST
Clear
Clear
 Wind from NW
Wind: NW 6 mph , 9 km/h
Temperature: -0°F , -18°C
Wind Chill: -12°F , -24°C
Dew Point: -6°F , -21°C
Humidity: 78%
Barometer: 30.67 inHg , 1038.6 hPa
Clouds: Clear
Visibility: 10 miles , 16 km
2022/01/20 06:55 KFET 200655Z AUTO 32005KT 10SM CLR M18/M21 A3067 RMK AO2 T11761215
 
KBTA - Blair Muni, Nebraska, USA
Distance from station: NNE 51mi, 82km
Updated: Thu, 20-Jan-2022 12:55am CST
Clear
Clear
 Wind from NNW
Wind: NNW 9 mph , 15 km/h
Temperature: 3°F , -16°C
Wind Chill: -11°F , -24°C
Dew Point: -6°F , -21°C
Humidity: 66%
Barometer: 30.65 inHg , 1037.9 hPa
Clouds: Clear
Visibility: 10 miles , 16 km
2022/01/20 06:55 KBTA 200655Z AUTO 34008KT 10SM CLR M16/M21 A3065 RMK AO2 T11611210
KJYR - York, Nebraska, USA
Distance from station: W 52mi, 84km
Updated: Thu, 20-Jan-2022 12:55am CST
Clear
Clear
 Wind from NW
Wind: NW 5 mph , 7 km/h
Temperature: -2°F , -19°C
Wind Chill: -13°F , -25°C
Dew Point: -8°F , -22°C
Humidity: 77%
Barometer: 30.64 inHg , 1037.6 hPa
Clouds: Clear
Visibility: 10 miles , 16 km
2022/01/20 06:55 KJYR 200655Z AUTO 32004KT 10SM CLR M19/M22 A3064 RMK AO2
 
KOMA - Omaha/Eppley, Nebraska, USA
Distance from station: NE 53mi, 85km
Updated: Thu, 20-Jan-2022 12:52am CST
Clear
Clear
 Wind from N
Wind: N 10 mph , 17 km/h
Temperature: 3°F , -16°C
Wind Chill: -12°F , -24°C
Dew Point: -4°F , -20°C
Humidity: 72%
Barometer: 30.68 inHg , 1038.9 hPa
Clouds: Clear
Visibility: 10 miles , 16 km
2022/01/20 06:52 KOMA 200652Z 36009KT 10SM CLR M16/M20 A3068 RMK AO2 SLP411 T11611200
KOLU - Columbus Muni, Nebraska, USA
Distance from station: NW 58mi, 93km
Updated: Thu, 20-Jan-2022 12:56am CST
Clear
Clear
 Wind from NNW
Wind: NNW 8 mph , 13 km/h
Temperature: -0°F , -18°C
Wind Chill: -14°F , -26°C
Dew Point: -8°F , -22°C
Humidity: 71%
Barometer: 30.67 inHg , 1038.6 hPa
Clouds: Clear
Visibility: 10 miles , 16 km
2022/01/20 06:56 KOLU 200656Z AUTO 34007KT 10SM CLR M18/M22 A3067 RMK AO2 SLP425 T11831222 FZRANO